Main page
METAR-TAF:

METAR-TAF

Airports :

Almería, Spain

Almería Airport

latitude: 36-51N, longitude: 002-23W, elevation: 15 m

Current weather observation

The report was made 39 minutes ago, at 22:30 UTC
Calm wind
Temperature 24°C
Humidity 78%
Pressure 1016 hPa
Visibility 10 km or more

METAR: LEAM 232230Z AUTO 00000KT 9999 NCD 24/20 Q1016

Time: 01:09 (23:09 UTC)

Forecast

The report was made 3 hours and 9 minutes ago, at 20:00 UTC
Forecast valid from 23 at 21 UTC to 24 at 21 UTC
Wind 3 kt from the North/Northeast
Visibility 10 km or more
no clouds below 1500 m and no cumulonimbus
Becoming
from 24 at 08 UTC to 24 at 11 UTC
Wind 11 kt from the South/Southwest

TAF: LEAM 232000Z 2321/2421 02003KT CAVOK TX29/2414Z TN22/2406Z BECMG 2408/2411 21011KT

Weather observations and forecasts of more than 4000 airports (METAR and TAF reports).

The available stations are represented by yellow and red dots on the map.

Hover mouse over dot to see the name of the station.

Then click to see weather observations and forecasts.

To change the map : click on the green buttons with a black cross to zoom in, on the green button with a dash to zoom out, or on the green arrows for adjacent maps.


METAR-TAF: